Odenton, Maryland
Current Conditions -  °F | °C
As of 1:15 PM on Thursday 23 Oct 2014 (Local Time) from KFME Reporting Station
Overcast Overcast  
Wind Chill: 61°   Ceiling: 4100
Heat Index: 61°   Visibility: 10mi
Dew Point: 45°   Wind: 7mph
Humidity: 55%   Direction: 320°NW
Pressure: 29.88"   Gusts: 20mph
Location:  39.08°N, 76.69°W
Report Text: KFME 231715Z AUTO 32006G17KT 10SM OVC041 16/07 A2988 RMK AO1
Loading
Personal Weather Stations






























Interactive Weather Map
Tropical Storm Tracking
New forecast layout! Learn more

10-Day Weather Forecast

Advertisements
Track Severe Weather on mobile